Time;durP1;ratioP1;P1;durP2;ratioP2;P2;SDS_P1;SDS_P2;PMS_P1;PMS_P2;Temp;Humidity;BMP_temperature;BMP_pressure;BME280_temperature;BME280_humidity;BME280_pressure;Samples;Min_cycle;Max_cycle;Signal;HPM_P1;HPM_P2
2022/09/16 00:01:17;;;;;;;16.63;9.13;;;20.00;85.80;;;;;;6334587;22;20009;-72
2022/09/16 00:03:44;;;;;;;14.77;8.60;;;20.00;86.20;;;;;;6332370;22;20586;-69
2022/09/16 00:06:19;;;;;;;14.75;7.93;;;20.00;86.40;;;;;;6333605;22;20058;-74
2022/09/16 00:08:47;;;;;;;15.27;8.63;;;20.00;86.50;;;;;;6331971;22;20007;-75
2022/09/16 00:11:14;;;;;;;17.27;8.43;;;20.00;86.60;;;;;;6333898;22;19999;-74
2022/09/16 00:13:41;;;;;;;13.75;8.27;;;20.00;86.70;;;;;;6332383;22;20010;-75
2022/09/16 00:16:10;;;;;;;12.70;7.68;;;20.00;86.90;;;;;;6333332;22;20049;-74
2022/09/16 00:18:37;;;;;;;10.77;7.03;;;20.00;87.00;;;;;;6334123;22;19998;-73
2022/09/16 00:21:08;;;;;;;10.70;6.65;;;20.00;87.00;;;;;;6332320;22;20071;-71
2022/09/16 00:23:35;;;;;;;9.00;5.32;;;20.00;87.00;;;;;;6333778;22;20007;-72
2022/09/16 00:26:01;;;;;;;10.40;6.60;;;20.00;87.00;;;;;;6331764;22;20003;-73
2022/09/16 00:28:28;;;;;;;9.68;6.20;;;20.00;86.90;;;;;;6333203;22;20479;-72
2022/09/16 00:30:57;;;;;;;15.45;7.05;;;20.00;86.90;;;;;;6332725;22;20398;-74
2022/09/16 00:33:24;;;;;;;13.35;8.10;;;20.00;86.90;;;;;;6332921;22;19999;-73
2022/09/16 00:35:51;;;;;;;12.18;8.05;;;20.00;86.90;;;;;;6333269;22;20005;-70
2022/09/16 00:38:17;;;;;;;11.77;6.88;;;20.00;86.90;;;;;;6331823;22;20006;-73
2022/09/16 00:40:48;;;;;;;15.57;8.50;;;20.00;86.90;;;;;;6333515;22;20099;-72
2022/09/16 00:43:19;;;;;;;13.05;7.25;;;20.00;86.90;;;;;;6332457;22;20089;-73
2022/09/16 00:45:54;;;;;;;14.52;6.57;;;20.00;86.90;;;;;;6333638;22;19995;-70
2022/09/16 00:48:24;;;;;;;12.23;7.18;;;20.00;86.90;;;;;;6333420;22;20448;-74
2022/09/16 00:50:59;;;;;;;11.50;7.13;;;20.00;87.00;;;;;;6334998;22;20002;-71
2022/09/16 00:53:55;;;;;;;14.48;6.28;;;20.00;86.90;;;;;;6334784;22;20110;-72
2022/09/16 00:56:24;;;;;;;10.50;5.28;;;19.90;86.70;;;;;;6331983;22;20052;-74
2022/09/16 00:59:02;;;;;;;13.43;7.40;;;19.90;86.70;;;;;;6335720;22;20006;-72
2022/09/16 01:01:30;;;;;;;10.63;6.72;;;19.90;86.50;;;;;;6336062;22;19995;-73
2022/09/16 01:04:01;;;;;;;10.45;6.93;;;19.90;86.30;;;;;;6334661;22;20618;-72
2022/09/16 01:06:28;;;;;;;9.43;6.68;;;19.90;86.20;;;;;;6335266;22;19995;-70
2022/09/16 01:08:56;;;;;;;11.77;6.35;;;19.90;86.10;;;;;;6334353;22;20010;-73
2022/09/16 01:11:23;;;;;;;9.15;5.72;;;19.80;85.90;;;;;;6335842;22;20295;-74
2022/09/16 01:13:51;;;;;;;11.32;6.55;;;19.80;85.90;;;;;;6334434;22;20322;-74
2022/09/16 01:16:33;;;;;;;10.13;6.25;;;19.80;85.80;;;;;;6335686;22;20007;-74
2022/09/16 01:19:31;;;;;;;10.65;6.47;;;19.70;85.80;;;;;;6334559;22;20007;-74
2022/09/16 01:22:16;;;;;;;11.32;5.53;;;19.80;85.80;;;;;;6333608;22;19998;-73
2022/09/16 01:24:48;;;;;;;13.38;6.22;;;19.70;85.80;;;;;;6334349;22;20022;-73
2022/09/16 01:27:34;;;;;;;9.70;6.07;;;19.70;85.70;;;;;;6333729;22;20009;-73
2022/09/16 01:30:12;;;;;;;10.13;5.88;;;19.70;85.90;;;;;;6333521;22;20044;-75
2022/09/16 01:33:03;;;;;;;11.63;5.95;;;19.70;86.70;;;;;;6335443;22;20012;-74
2022/09/16 01:35:54;;;;;;;11.18;5.82;;;19.70;86.00;;;;;;6334399;22;20375;-75
2022/09/16 01:38:45;;;;;;;10.73;6.22;;;19.70;86.10;;;;;;6334556;22;20005;-75
2022/09/16 01:41:17;;;;;;;8.32;5.50;;;19.60;86.00;;;;;;6335402;22;20015;-74
2022/09/16 01:44:02;;;;;;;12.15;5.68;;;19.60;86.00;;;;;;6333290;22;20007;-74
2022/09/16 01:46:51;;;;;;;9.73;5.93;;;19.60;86.00;;;;;;6334886;22;20077;-72
2022/09/16 01:49:24;;;;;;;10.82;5.85;;;19.60;86.00;;;;;;6334333;22;20456;-75
2022/09/16 01:52:08;;;;;;;16.05;6.57;;;19.60;85.90;;;;;;6334143;22;20444;-72
2022/09/16 01:55:10;;;;;;;11.65;6.22;;;19.60;85.80;;;;;;6334902;22;20007;-75
2022/09/16 01:57:39;;;;;;;9.23;6.45;;;19.60;85.80;;;;;;6329710;22;20078;-74
2022/09/16 02:00:10;;;;;;;9.35;5.55;;;19.60;85.70;;;;;;6333976;22;19994;-72
2022/09/16 04:15:00;;;;;;;11.00;8.93;;;18.20;80.80;;;;;;5059795;27;20487;-73
2022/09/16 04:17:30;;;;;;;8.13;7.30;;;18.30;81.30;;;;;;5060143;28;20032;-69
2022/09/16 04:19:57;;;;;;;49.53;36.55;;;18.30;80.90;;;;;;5061921;28;20013;-70
2022/09/16 04:22:23;;;;;;;34.38;26.98;;;18.30;80.40;;;;;;5059149;28;20090;-71
2022/09/16 04:24:50;;;;;;;17.48;14.82;;;18.30;80.20;;;;;;5061728;28;20033;-72
2022/09/16 04:27:16;;;;;;;10.07;9.07;;;18.30;80.00;;;;;;5060904;28;20111;-70
2022/09/16 04:29:42;;;;;;;8.63;7.05;;;18.30;79.90;;;;;;5062771;28;20049;-71
2022/09/16 04:32:09;;;;;;;6.80;6.10;;;18.30;79.80;;;;;;5067081;28;20077;-69
2022/09/16 04:34:36;;;;;;;6.88;5.47;;;18.30;79.60;;;;;;5060178;28;20021;-71
2022/09/16 04:37:03;;;;;;;6.55;5.95;;;18.30;79.50;;;;;;5062496;28;20029;-69
2022/09/16 04:39:29;;;;;;;6.88;6.07;;;18.30;79.50;;;;;;5055763;28;20036;-69
2022/09/16 04:41:56;;;;;;;6.55;5.45;;;18.30;79.40;;;;;;5063146;28;20483;-67
2022/09/16 04:44:22;;;;;;;8.38;5.53;;;18.30;79.30;;;;;;5062284;28;20017;-68
2022/09/16 04:46:48;;;;;;;6.82;5.70;;;18.30;79.30;;;;;;5063812;28;20130;-69
2022/09/16 04:49:15;;;;;;;6.07;5.47;;;18.30;79.40;;;;;;5064791;28;20668;-70
2022/09/16 04:51:41;;;;;;;8.20;6.05;;;18.30;79.30;;;;;;5061062;28;20455;-71
2022/09/16 04:54:08;;;;;;;7.60;5.80;;;18.30;79.40;;;;;;5059627;28;20025;-70
2022/09/16 04:56:35;;;;;;;6.95;6.13;;;18.30;79.50;;;;;;5063074;28;20043;-71
2022/09/16 04:59:03;;;;;;;6.78;6.18;;;18.30;79.60;;;;;;5058376;28;20822;-71
2022/09/16 05:01:33;;;;;;;9.85;7.18;;;18.30;79.60;;;;;;5059967;28;20494;-71
2022/09/16 05:04:02;;;;;;;8.45;7.32;;;18.30;79.70;;;;;;5057646;28;20052;-71
2022/09/16 05:06:32;;;;;;;10.38;8.15;;;18.30;79.80;;;;;;5057270;28;20079;-71
2022/09/16 05:09:01;;;;;;;11.70;7.60;;;18.30;79.90;;;;;;5061519;28;20052;-71
2022/09/16 05:11:33;;;;;;;8.68;7.18;;;18.30;80.10;;;;;;5058201;28;20026;-71
2022/09/16 05:14:01;;;;;;;9.43;8.05;;;18.30;80.20;;;;;;5069441;28;20529;-69
2022/09/16 05:16:29;;;;;;;10.50;8.20;;;18.30;80.20;;;;;;5069847;28;20399;-72
2022/09/16 05:19:00;;;;;;;9.60;8.57;;;18.30;80.30;;;;;;5068354;28;20067;-71
2022/09/16 05:21:27;;;;;;;10.98;7.82;;;18.30;80.30;;;;;;5064416;28;20016;-70
2022/09/16 05:23:58;;;;;;;12.88;7.45;;;18.30;80.30;;;;;;5069017;28;20037;-72
2022/09/16 05:26:27;;;;;;;10.50;7.50;;;18.30;80.60;;;;;;5068523;28;20027;-70
2022/09/16 05:28:53;;;;;;;10.18;7.90;;;18.30;80.80;;;;;;5062395;28;20020;-71
2022/09/16 05:31:25;;;;;;;13.90;8.38;;;18.30;80.80;;;;;;5066347;28;20029;-72
2022/09/16 05:34:09;;;;;;;11.95;7.13;;;18.30;80.70;;;;;;5069435;28;20016;-72
2022/09/16 05:36:40;;;;;;;9.43;6.97;;;18.30;80.70;;;;;;5070530;28;20059;-72
2022/09/16 05:39:07;;;;;;;11.82;7.10;;;18.40;80.80;;;;;;5064778;28;20044;-70
2022/09/16 05:41:33;;;;;;;7.47;5.90;;;18.40;80.70;;;;;;5071365;28;20074;-69
2022/09/16 05:44:00;;;;;;;12.50;6.50;;;18.40;80.70;;;;;;5064114;28;20024;-72
2022/09/16 05:46:28;;;;;;;10.40;5.85;;;18.40;80.60;;;;;;5068415;28;20025;-73
2022/09/16 05:48:55;;;;;;;11.15;6.65;;;18.40;80.60;;;;;;5068720;28;20023;-70
2022/09/16 05:51:23;;;;;;;9.43;6.70;;;18.40;80.60;;;;;;5070381;28;20483;-72
2022/09/16 05:53:50;;;;;;;9.15;8.05;;;18.40;80.60;;;;;;5063513;28;20020;-71
2022/09/16 05:56:20;;;;;;;11.48;7.70;;;18.40;80.70;;;;;;5069132;28;20024;-72
2022/09/16 05:58:47;;;;;;;11.63;8.32;;;18.40;80.80;;;;;;5072233;28;20172;-72
2022/09/16 06:01:19;;;;;;;15.90;8.95;;;18.40;80.80;;;;;;5063990;28;20150;-72
2022/09/16 06:03:47;;;;;;;13.82;8.25;;;18.40;81.00;;;;;;5068285;28;20044;-72
2022/09/16 06:06:31;;;;;;;14.70;9.82;;;18.40;81.00;;;;;;5066513;28;20098;-72
2022/09/16 06:09:00;;;;;;;16.35;9.38;;;18.40;81.10;;;;;;5065891;28;20415;-72
2022/09/16 06:11:27;;;;;;;13.98;9.88;;;18.40;81.10;;;;;;5067292;28;20037;-70
2022/09/16 06:14:00;;;;;;;14.30;9.68;;;18.40;81.20;;;;;;5067727;28;20400;-72
2022/09/16 06:16:31;;;;;;;15.55;9.93;;;18.40;81.30;;;;;;5061075;28;20048;-70
2022/09/16 06:18:58;;;;;;;14.70;10.68;;;18.50;81.50;;;;;;5068098;28;20024;-70
2022/09/16 06:21:24;;;;;;;17.23;10.75;;;18.50;81.80;;;;;;5067692;28;20049;-72
2022/09/16 06:23:52;;;;;;;15.57;11.18;;;18.50;81.90;;;;;;5071747;28;20043;-72
2022/09/16 06:26:21;;;;;;;13.00;10.20;;;18.50;82.20;;;;;;5068406;28;20593;-70
2022/09/16 06:28:49;;;;;;;14.38;10.05;;;18.50;82.50;;;;;;5063528;28;20490;-70
2022/09/16 06:31:18;;;;;;;11.70;9.88;;;18.50;82.70;;;;;;5067908;28;20024;-69
2022/09/16 06:33:45;;;;;;;18.48;10.93;;;18.60;83.10;;;;;;5068131;28;20528;-72
2022/09/16 06:36:15;;;;;;;14.63;9.93;;;18.60;83.40;;;;;;5068894;28;20478;-70
2022/09/16 06:38:42;;;;;;;11.38;8.45;;;18.60;84.40;;;;;;5060937;28;20028;-70
2022/09/16 06:41:11;;;;;;;13.60;7.90;;;18.60;84.00;;;;;;5067228;28;20023;-70
2022/09/16 06:43:38;;;;;;;14.48;8.93;;;18.60;84.10;;;;;;5065238;28;20050;-72
2022/09/16 06:46:09;;;;;;;20.70;8.23;;;18.70;84.20;;;;;;5068305;28;20021;-72
2022/09/16 06:48:35;;;;;;;10.68;8.05;;;18.70;84.60;;;;;;5069001;28;20028;-71
2022/09/16 06:51:15;;;;;;;17.25;8.48;;;18.70;84.80;;;;;;5066852;28;20023;-73
2022/09/16 06:53:43;;;;;;;11.77;8.20;;;18.80;84.80;;;;;;5066785;28;20025;-73
2022/09/16 06:56:12;;;;;;;17.63;9.15;;;18.80;84.70;;;;;;5070375;28;20056;-70
2022/09/16 06:58:41;;;;;;;25.73;10.07;;;18.80;84.80;;;;;;5067404;28;20044;-72
2022/09/16 07:01:11;;;;;;;27.50;10.05;;;18.80;85.20;;;;;;5062150;28;20484;-72
2022/09/16 07:03:39;;;;;;;14.50;8.27;;;18.90;85.50;;;;;;5067131;28;20115;-71
2022/09/16 07:06:07;;;;;;;15.23;8.10;;;18.90;85.70;;;;;;5066925;28;20063;-72
2022/09/16 07:08:35;;;;;;;12.15;7.10;;;19.00;85.70;;;;;;5069738;28;20475;-71
2022/09/16 07:11:05;;;;;;;12.25;7.75;;;18.90;85.60;;;;;;5061965;28;20398;-69
2022/09/16 07:13:32;;;;;;;11.82;8.63;;;19.00;85.50;;;;;;5067299;28;20082;-72
2022/09/16 07:16:07;;;;;;;13.77;8.13;;;19.00;85.40;;;;;;5059349;28;20071;-73
2022/09/16 07:18:33;;;;;;;;;;;19.10;85.40;;;;;;5065935;28;20714;-70
2022/09/16 07:21:05;;;;;;;14.38;7.65;;;19.10;85.40;;;;;;5064846;28;19950;-71
2022/09/16 07:23:33;;;;;;;7.75;5.85;;;19.10;85.40;;;;;;5068245;28;20043;-72
2022/09/16 07:26:05;;;;;;;10.30;6.28;;;19.10;85.30;;;;;;5061995;28;20130;-70
2022/09/16 07:28:32;;;;;;;15.02;6.55;;;19.20;85.30;;;;;;5068401;28;20019;-71
2022/09/16 07:31:04;;;;;;;15.95;7.43;;;19.20;85.20;;;;;;5066925;28;20490;-71
2022/09/16 07:33:32;;;;;;;12.98;7.75;;;19.30;85.10;;;;;;5076722;28;20451;-70
2022/09/16 07:36:02;;;;;;;9.27;5.13;;;19.30;85.00;;;;;;5068549;28;20028;-72
2022/09/16 07:38:30;;;;;;;17.55;5.78;;;19.30;84.80;;;;;;5068969;28;20475;-71
2022/09/16 07:41:04;;;;;;;8.90;5.47;;;19.30;84.60;;;;;;5069277;28;20032;-71
2022/09/16 07:43:31;;;;;;;14.57;5.57;;;19.40;84.50;;;;;;5059978;28;20492;-71
2022/09/16 07:45:58;;;;;;;12.98;5.18;;;19.40;84.30;;;;;;5064767;28;20087;-71
2022/09/16 07:48:27;;;;;;;11.55;5.95;;;19.40;84.20;;;;;;5063647;28;20475;-71
2022/09/16 07:50:56;;;;;;;17.98;6.03;;;19.40;84.00;;;;;;5069467;28;20024;-71
2022/09/16 07:53:23;;;;;;;10.07;5.55;;;19.40;84.00;;;;;;5066016;28;20471;-70
2022/09/16 07:55:49;;;;;;;9.35;5.60;;;19.50;84.00;;;;;;5065695;28;20024;-71
2022/09/16 07:58:16;;;;;;;8.27;5.78;;;19.60;83.90;;;;;;5064103;28;20498;-71
2022/09/16 08:00:47;;;;;;;11.32;6.72;;;19.60;83.70;;;;;;5071187;28;20401;-72
2022/09/16 08:03:14;;;;;;;13.63;6.90;;;19.60;83.40;;;;;;5066897;28;20033;-71
2022/09/16 08:05:41;;;;;;;11.48;6.25;;;19.70;83.50;;;;;;5067061;28;20074;-71
2022/09/16 08:08:07;;;;;;;16.45;5.30;;;19.70;83.60;;;;;;5063722;28;20013;-70
2022/09/16 08:10:35;;;;;;;17.65;7.50;;;19.70;83.60;;;;;;5069437;28;20600;-71
2022/09/16 08:13:04;;;;;;;18.25;7.25;;;19.80;83.60;;;;;;5048615;28;20380;-71
2022/09/16 08:15:30;;;;;;;15.50;6.95;;;19.80;83.50;;;;;;5063861;28;20374;-70
2022/09/16 08:17:56;;;;;;;11.13;5.05;;;19.80;83.60;;;;;;5065576;28;20078;-70
2022/09/16 08:20:24;;;;;;;6.10;4.43;;;19.80;83.80;;;;;;5063942;28;20103;-72
2022/09/16 08:22:52;;;;;;;19.63;4.90;;;19.90;83.80;;;;;;5066977;28;20025;-71
2022/09/16 08:25:18;;;;;;;16.40;3.92;;;19.90;83.60;;;;;;5063008;28;20029;-70
2022/09/16 08:27:45;;;;;;;5.68;3.15;;;19.90;83.40;;;;;;5063442;28;20029;-71
2022/09/16 08:30:12;;;;;;;6.60;3.35;;;19.90;83.40;;;;;;5063022;28;20479;-72
2022/09/16 08:32:38;;;;;;;9.18;3.15;;;19.90;83.30;;;;;;5064577;28;20456;-70
2022/09/16 08:35:05;;;;;;;7.65;2.30;;;20.00;83.40;;;;;;5061549;28;20526;-72
2022/09/16 08:37:33;;;;;;;4.53;2.22;;;20.00;83.20;;;;;;5065044;28;20514;-72
2022/09/16 08:40:00;;;;;;;4.70;1.90;;;20.00;83.10;;;;;;5061317;28;20081;-71
2022/09/16 08:42:34;;;;;;;3.30;2.65;;;20.00;82.80;;;;;;5064064;28;20031;-71
2022/09/16 08:45:54;;;;;;;3.03;1.95;;;20.00;82.40;;;;;;5061435;28;20033;-70
2022/09/16 08:48:44;;;;;;;8.73;2.70;;;20.00;82.30;;;;;;4983171;28;20106;-71
2022/09/16 08:51:16;;;;;;;5.30;2.30;;;20.10;82.00;;;;;;5065919;28;20131;-71
2022/09/16 08:53:45;;;;;;;3.65;1.92;;;20.10;81.80;;;;;;5069661;28;20407;-71
2022/09/16 08:56:19;;;;;;;2.50;1.38;;;20.10;81.50;;;;;;5061023;28;20021;-71
2022/09/16 08:58:49;;;;;;;2.50;1.35;;;20.10;81.20;;;;;;5066505;28;20067;-71
2022/09/16 09:01:26;;;;;;;6.63;1.55;;;20.10;80.90;;;;;;5072823;28;20025;-71
2022/09/16 09:03:53;;;;;;;2.78;1.52;;;20.10;80.50;;;;;;5066135;28;20024;-71
2022/09/16 09:06:32;;;;;;;3.30;1.88;;;20.10;80.00;;;;;;5067854;28;20013;-71
2022/09/16 09:09:19;;;;;;;4.63;1.70;;;20.10;79.60;;;;;;5071640;28;20016;-71
2022/09/16 09:11:52;;;;;;;2.47;1.23;;;20.10;79.10;;;;;;5070581;28;20027;-70
2022/09/16 09:14:39;;;;;;;7.03;1.75;;;20.20;78.80;;;;;;5062298;28;20064;-70
2022/09/16 09:17:12;;;;;;;4.50;1.17;;;20.20;78.70;;;;;;5070251;28;20147;-71
2022/09/16 09:20:26;;;;;;;3.28;1.52;;;20.30;78.50;;;;;;5070854;28;20100;-71
2022/09/16 09:23:04;;;;;;;3.70;1.20;;;20.30;78.30;;;;;;5022535;28;20573;-71
2022/09/16 09:25:39;;;;;;;3.47;1.02;;;20.30;78.10;;;;;;5069647;28;20017;-69
2022/09/16 09:28:42;;;;;;;12.13;2.72;;;20.40;77.70;;;;;;5060236;28;20040;-70
2022/09/16 09:31:32;;;;;;;6.63;1.52;;;20.40;76.80;;;;;;5069019;28;20487;-71
2022/09/16 09:34:13;;;;;;;13.30;1.63;;;20.40;76.40;;;;;;5066769;28;20595;-70
2022/09/16 09:37:13;;;;;;;2.47;1.02;;;20.40;76.10;;;;;;5069165;28;20571;-71
2022/09/16 09:40:10;;;;;;;5.30;1.10;;;20.40;76.10;;;;;;5066818;28;20489;-70
2022/09/16 09:43:04;;;;;;;3.65;0.90;;;20.50;75.80;;;;;;5063587;28;20043;-71
2022/09/16 09:45:59;;;;;;;4.50;1.15;;;20.50;75.80;;;;;;5065469;28;20071;-72
2022/09/16 09:48:34;;;;;;;5.88;0.88;;;20.50;75.80;;;;;;5051268;28;20048;-70
2022/09/16 09:51:26;;;;;;;2.80;1.17;;;20.60;75.80;;;;;;5067912;28;20044;-71
2022/09/16 09:53:58;;;;;;;1.38;1.02;;;20.70;76.00;;;;;;5068720;28;20124;-72
2022/09/16 09:56:30;;;;;;;0.95;0.70;;;20.80;76.00;;;;;;5070771;28;20079;-71
2022/09/16 09:59:04;;;;;;;7.35;1.27;;;20.80;75.60;;;;;;5067075;28;20400;-71
2022/09/16 10:01:30;;;;;;;1.77;0.77;;;20.90;75.30;;;;;;5065290;28;20028;-71
2022/09/16 10:03:59;;;;;;;1.85;0.68;;;20.90;74.70;;;;;;5070126;28;20021;-70
2022/09/16 12:59:11;;;;;;;3.97;1.30;;;22.50;67.20;;;;;;6077423;22;3390847;-71
2022/09/16 13:01:47;;;;;;;5.70;1.63;;;22.60;67.40;;;;;;6189153;23;20265;-71
2022/09/16 13:04:16;;;;;;;1.63;0.90;;;22.60;67.40;;;;;;6187787;23;20005;-70
2022/09/16 13:06:52;;;;;;;4.60;1.83;;;22.60;67.10;;;;;;6189111;23;20055;-71
2022/09/16 13:09:23;;;;;;;5.05;1.80;;;22.50;67.00;;;;;;6188215;23;20489;-71
2022/09/16 13:12:00;;;;;;;6.60;1.40;;;22.50;67.10;;;;;;6188831;23;20435;-71
2022/09/16 13:14:32;;;;;;;4.97;1.30;;;22.50;67.60;;;;;;6189242;23;20001;-71
2022/09/16 13:17:03;;;;;;;1.58;0.73;;;22.50;67.80;;;;;;6183655;23;20646;-71
2022/09/16 13:19:39;;;;;;;3.05;1.05;;;22.50;67.10;;;;;;6182790;23;20076;-72
2022/09/16 13:22:29;;;;;;;3.40;1.25;;;22.50;67.00;;;;;;6181228;23;20005;-70
2022/09/16 13:25:40;;;;;;;4.88;0.90;;;22.60;67.50;;;;;;6181359;23;20629;-71
2022/09/16 13:28:27;;;;;;;2.70;0.85;;;22.50;66.90;;;;;;6182395;23;20005;-72
2022/09/16 13:30:54;;;;;;;3.80;0.70;;;22.60;67.10;;;;;;6181970;23;20005;-71
2022/09/16 13:33:27;;;;;;;2.85;0.80;;;22.60;66.80;;;;;;6182431;23;20091;-72
2022/09/16 13:36:22;;;;;;;1.98;0.90;;;22.60;66.60;;;;;;6181435;23;20049;-71
2022/09/16 13:38:50;;;;;;;;;;;22.60;66.40;;;;;;6168154;23;20008;-72
2022/09/16 13:41:39;;;;;;;3.55;0.63;;;22.60;66.20;;;;;;6182718;23;20323;-72
2022/09/16 13:44:37;;;;;;;2.25;0.82;;;22.60;66.20;;;;;;6181316;23;20047;-71
2022/09/16 13:47:09;;;;;;;2.85;0.98;;;22.60;66.10;;;;;;6180636;23;20009;-71
2022/09/16 13:49:56;;;;;;;1.67;0.80;;;22.60;65.80;;;;;;6182088;23;20005;-70
2022/09/16 13:52:32;;;;;;;1.45;0.90;;;22.60;65.70;;;;;;6180717;23;20005;-72
2022/09/16 13:55:01;;;;;;;1.52;0.98;;;22.60;65.60;;;;;;6182671;23;20123;-71
2022/09/16 13:57:44;;;;;;;5.20;0.90;;;22.60;65.50;;;;;;6186702;23;20092;-72
2022/09/16 14:00:21;;;;;;;4.07;1.00;;;22.50;65.60;;;;;;6210849;23;20019;-72
2022/09/16 14:03:33;;;;;;;4.18;1.70;;;22.50;65.80;;;;;;6211869;23;20009;-72
2022/09/16 14:06:04;;;;;;;4.72;1.10;;;22.50;66.00;;;;;;6184805;23;20430;-71
2022/09/16 14:08:47;;;;;;;2.25;1.10;;;22.50;66.00;;;;;;6210923;23;20050;-71
2022/09/16 14:11:32;;;;;;;4.15;0.93;;;22.50;66.00;;;;;;6211890;23;20105;-71
2022/09/16 14:14:13;;;;;;;4.82;0.98;;;22.50;66.00;;;;;;6209890;23;19997;-71
2022/09/16 14:16:42;;;;;;;4.10;0.82;;;22.50;66.00;;;;;;6211498;23;20005;-70
2022/09/16 14:19:14;;;;;;;10.68;1.50;;;22.50;66.00;;;;;;6211672;23;20495;-74
2022/09/16 14:21:40;;;;;;;2.80;0.98;;;22.40;66.10;;;;;;6210099;23;20001;-73
2022/09/16 14:24:15;;;;;;;4.38;1.15;;;22.40;65.70;;;;;;6211748;23;20001;-75
2022/09/16 14:26:56;;;;;;;2.90;0.80;;;22.40;66.10;;;;;;6210873;23;20394;-73
2022/09/16 14:29:26;;;;;;;3.90;1.48;;;22.30;67.10;;;;;;6211141;23;20016;-70
2022/09/16 14:31:55;;;;;;;2.33;0.82;;;22.30;67.90;;;;;;6210865;23;20023;-78
2022/09/16 14:34:30;;;;;;;2.90;2.60;;;22.30;68.30;;;;;;6211394;23;20001;-70
2022/09/16 14:36:57;;;;;;;11.45;1.90;;;22.30;68.50;;;;;;6211834;23;20005;-74
2022/09/16 14:39:25;;;;;;;3.40;1.52;;;22.30;69.00;;;;;;6209777;23;20000;-70
2022/09/16 14:41:53;;;;;;;3.20;1.65;;;22.30;68.70;;;;;;6211290;23;20028;-70
2022/09/16 14:44:19;;;;;;;4.78;1.25;;;22.20;68.40;;;;;;6210051;23;20446;-72
2022/09/16 14:46:57;;;;;;;4.15;1.27;;;22.20;68.60;;;;;;6211235;23;20001;-73
2022/09/16 14:49:24;;;;;;;5.82;2.78;;;22.20;69.00;;;;;;6210798;23;20001;-72
2022/09/16 14:52:22;;;;;;;3.47;1.20;;;22.10;68.90;;;;;;6209989;23;20039;-71
2022/09/16 14:54:50;;;;;;;2.85;1.23;;;22.10;68.90;;;;;;6203394;23;20004;-71
2022/09/16 14:57:23;;;;;;;2.50;0.90;;;22.10;69.00;;;;;;6210118;23;20328;-71
2022/09/16 14:59:56;;;;;;;2.85;0.68;;;22.00;69.10;;;;;;6211646;23;20063;-73
2022/09/16 15:02:36;;;;;;;4.93;0.95;;;21.90;69.30;;;;;;6210743;23;20442;-73
2022/09/16 15:05:27;;;;;;;4.75;1.20;;;21.90;69.40;;;;;;6210081;23;20475;-71
2022/09/16 15:08:06;;;;;;;3.40;1.58;;;21.80;69.40;;;;;;6211230;23;20008;-75
2022/09/16 15:10:32;;;;;;;6.03;1.15;;;21.70;69.70;;;;;;6210118;23;20004;-70
2022/09/16 15:13:11;;;;;;;4.60;1.60;;;21.60;69.80;;;;;;6211177;23;20000;-75
2022/09/16 15:15:48;;;;;;;2.67;1.40;;;21.60;70.40;;;;;;6211500;23;20004;-74
2022/09/16 15:18:31;;;;;;;3.53;1.40;;;21.50;69.80;;;;;;6183369;23;20062;-77
2022/09/16 15:21:21;;;;;;;3.10;1.70;;;21.50;69.90;;;;;;6210889;23;20031;-70
2022/09/16 15:23:51;;;;;;;8.43;2.30;;;21.50;70.00;;;;;;6210475;23;20005;-72
2022/09/16 15:26:40;;;;;;;7.15;2.45;;;21.40;70.10;;;;;;6210746;23;20012;-73
2022/09/16 15:29:16;;;;;;;7.22;1.92;;;21.50;70.40;;;;;;6210897;23;20000;-72
2022/09/16 15:31:43;;;;;;;1.85;1.05;;;21.40;71.30;;;;;;6209321;23;20443;-74
2022/09/16 15:36:55;;;;;;;2.17;1.10;;;21.40;71.00;;;;;;6209008;23;20012;-73
2022/09/16 15:39:28;;;;;;;4.60;1.23;;;21.40;71.10;;;;;;6181483;23;20005;-73
2022/09/16 15:42:12;;;;;;;5.38;1.40;;;21.40;71.30;;;;;;6211004;23;20011;-73
2022/09/16 15:44:52;;;;;;;4.30;1.83;;;21.40;71.40;;;;;;6209750;23;20012;-73
2022/09/16 15:47:50;;;;;;;5.90;1.50;;;21.30;71.60;;;;;;6210880;23;20014;-72
2022/09/16 15:50:20;;;;;;;3.85;1.48;;;21.30;71.70;;;;;;6202551;23;20009;-72
2022/09/16 15:53:07;;;;;;;2.72;1.35;;;21.20;71.90;;;;;;6210013;23;20016;-73
2022/09/16 15:55:37;;;;;;;3.95;1.52;;;21.20;72.30;;;;;;6211470;23;20328;-73
2022/09/16 15:58:19;;;;;;;4.60;2.08;;;21.20;72.60;;;;;;6209753;23;20124;-73
2022/09/16 16:01:01;;;;;;;7.10;2.28;;;21.20;72.90;;;;;;6210602;23;20001;-72
2022/09/16 16:03:34;;;;;;;10.77;2.25;;;21.20;73.20;;;;;;6211969;23;20001;-73
2022/09/16 16:06:03;;;;;;;6.30;1.42;;;21.10;73.20;;;;;;6209684;23;20032;-72
2022/09/16 16:08:39;;;;;;;6.50;1.77;;;21.10;73.30;;;;;;6211257;23;20001;-73
2022/09/16 16:11:11;;;;;;;5.65;1.63;;;21.10;74.00;;;;;;6209789;23;20092;-72
2022/09/16 16:13:41;;;;;;;5.63;1.83;;;21.10;73.40;;;;;;6210901;23;20008;-73
2022/09/16 16:16:08;;;;;;;4.03;1.38;;;21.10;73.40;;;;;;6210765;23;20127;-72
2022/09/16 16:18:36;;;;;;;7.75;2.30;;;21.00;73.50;;;;;;6209031;23;20412;-73
2022/09/16 16:21:08;;;;;;;4.45;1.52;;;21.00;73.50;;;;;;6210856;23;20004;-73
2022/09/16 16:23:35;;;;;;;8.73;1.67;;;21.00;73.50;;;;;;6209781;23;20008;-73
2022/09/16 16:26:06;;;;;;;6.72;2.42;;;21.00;73.40;;;;;;6210513;23;20008;-72
2022/09/16 16:28:33;;;;;;;5.18;1.50;;;21.00;73.30;;;;;;6210204;23;20027;-72
2022/09/16 16:31:16;;;;;;;8.52;1.58;;;21.00;74.00;;;;;;6210454;23;20005;-72
2022/09/16 16:33:44;;;;;;;7.90;1.88;;;21.00;73.20;;;;;;6211441;23;20008;-72
2022/09/16 16:36:15;;;;;;;14.32;4.35;;;20.90;73.10;;;;;;6209457;23;20079;-72
2022/09/16 16:38:42;;;;;;;3.20;1.50;;;20.90;73.10;;;;;;6210714;23;19997;-73
2022/09/16 16:41:11;;;;;;;4.07;1.30;;;20.90;73.20;;;;;;6208541;23;20005;-72
2022/09/16 16:43:38;;;;;;;5.63;2.95;;;20.90;73.10;;;;;;6210658;23;20432;-73
2022/09/16 16:46:05;;;;;;;6.03;1.60;;;20.90;73.10;;;;;;6210402;23;20079;-72
2022/09/16 16:48:31;;;;;;;5.32;1.58;;;20.80;73.20;;;;;;6210459;23;20083;-72
2022/09/16 16:51:06;;;;;;;1.98;1.30;;;20.80;73.20;;;;;;6210656;23;20001;-72
2022/09/16 16:53:33;;;;;;;4.55;1.13;;;20.80;73.20;;;;;;6211287;23;20016;-72
2022/09/16 16:56:11;;;;;;;6.50;2.45;;;20.80;73.10;;;;;;6212934;23;20428;-74
2022/09/16 16:58:47;;;;;;;4.95;1.42;;;20.80;73.10;;;;;;6211100;23;20023;-74
2022/09/16 17:01:18;;;;;;;3.20;1.17;;;20.80;73.20;;;;;;6211804;23;20009;-76
2022/09/16 17:03:48;;;;;;;4.65;1.83;;;20.80;73.10;;;;;;6212712;23;20012;-71
2022/09/16 17:06:16;;;;;;;4.32;1.38;;;20.80;73.00;;;;;;6212494;23;20043;-74
2022/09/16 17:08:43;;;;;;;10.10;4.85;;;20.70;73.30;;;;;;6183299;23;20007;-72
2022/09/16 17:11:12;;;;;;;5.93;4.13;;;20.70;73.40;;;;;;6208726;23;20012;-73
2022/09/16 17:13:42;;;;;;;7.05;3.08;;;20.70;73.80;;;;;;6210968;23;20071;-74
2022/09/16 17:16:10;;;;;;;6.50;2.70;;;20.70;74.10;;;;;;6209089;23;20028;-69
2022/09/16 17:18:38;;;;;;;6.25;1.90;;;20.70;74.20;;;;;;6210426;23;20428;-74
2022/09/16 17:21:10;;;;;;;3.67;1.80;;;20.60;74.10;;;;;;6210100;23;20004;-73
2022/09/16 17:23:37;;;;;;;9.25;2.42;;;20.60;74.10;;;;;;6209106;23;20063;-71
2022/09/16 17:26:05;;;;;;;7.20;2.00;;;20.60;74.30;;;;;;6209815;23;20019;-71
2022/09/16 17:28:31;;;;;;;5.40;1.88;;;20.60;74.40;;;;;;6209089;23;20008;-71
2022/09/16 17:30:58;;;;;;;6.47;2.00;;;20.50;74.40;;;;;;6211081;23;20001;-73
2022/09/16 17:33:25;;;;;;;7.28;1.35;;;20.50;74.60;;;;;;6208373;23;20008;-72
2022/09/16 17:36:05;;;;;;;3.80;1.27;;;20.50;74.70;;;;;;6210275;23;20004;-73
2022/09/16 17:38:32;;;;;;;5.97;1.55;;;20.50;75.10;;;;;;6211012;23;20028;-72
2022/09/16 17:41:08;;;;;;;8.50;2.53;;;20.50;75.30;;;;;;6210118;23;20003;-72
2022/09/16 17:43:35;;;;;;;4.50;1.45;;;20.50;75.50;;;;;;6210326;23;20005;-72
2022/09/16 17:46:04;;;;;;;5.30;1.42;;;20.50;75.90;;;;;;6208509;23;20022;-73
2022/09/16 17:48:31;;;;;;;4.72;1.80;;;20.50;76.20;;;;;;6210505;23;20054;-74
2022/09/16 17:51:01;;;;;;;5.15;1.60;;;20.50;76.60;;;;;;6208087;23;20004;-71
2022/09/16 17:53:28;;;;;;;10.05;1.98;;;20.50;76.50;;;;;;6183580;23;20091;-71
2022/09/16 17:56:14;;;;;;;4.68;1.98;;;20.50;76.60;;;;;;6208838;23;20432;-74
2022/09/16 17:58:46;;;;;;;6.53;1.80;;;20.40;76.70;;;;;;6209691;23;20008;-73
2022/09/16 18:01:18;;;;;;;3.80;1.65;;;20.40;76.30;;;;;;6210992;23;20031;-72
2022/09/16 20:16:40;;;;;;;6.40;3.28;;;19.60;80.60;;;;;;5073433;28;20513;-69
2022/09/16 20:19:09;;;;;;;10.80;4.10;;;19.70;79.90;;;;;;5063684;28;20115;-70
2022/09/16 20:21:36;;;;;;;8.48;3.15;;;19.70;79.60;;;;;;5069775;28;20349;-70
2022/09/16 20:24:07;;;;;;;8.10;2.90;;;19.70;79.20;;;;;;5075586;28;20382;-70
2022/09/16 20:26:35;;;;;;;12.35;4.07;;;19.80;78.90;;;;;;5065984;28;20025;-70
2022/09/16 20:29:02;;;;;;;5.40;3.78;;;19.80;78.70;;;;;;5070663;28;20016;-69
2022/09/16 20:31:31;;;;;;;7.40;3.92;;;19.80;78.40;;;;;;5072045;28;20104;-69
2022/09/16 20:33:58;;;;;;;9.75;5.18;;;19.80;78.10;;;;;;5064442;28;20095;-69